Time;durP1;ratioP1;P1;durP2;ratioP2;P2;SDS_P1;SDS_P2;PMS_P1;PMS_P2;Temp;Humidity;BMP_temperature;BMP_pressure;BME280_temperature;BME280_humidity;BME280_pressure;Samples;Min_cycle;Max_cycle;Signal;HPM_P1;HPM_P2
2022/06/08 00:00:19;;;;;;;9.10;7.68;;;23.10;99.90;;;;;;5116174;28;20043;-59
2022/06/08 00:02:51;;;;;;;6.07;5.53;;;23.10;99.90;;;;;;5116269;28;20030;-60
2022/06/08 00:05:17;;;;;;;6.60;5.60;;;23.20;99.90;;;;;;5115845;28;20058;-59
2022/06/08 00:07:43;;;;;;;6.53;5.88;;;23.30;99.90;;;;;;5115825;28;20028;-59
2022/06/08 00:10:09;;;;;;;8.13;7.22;;;23.40;99.90;;;;;;5115317;28;20351;-60
2022/06/08 00:12:35;;;;;;;6.93;6.30;;;23.30;99.90;;;;;;5115735;28;20020;-59
2022/06/08 00:15:01;;;;;;;6.32;5.72;;;23.30;99.90;;;;;;5097420;28;20397;-60
2022/06/08 00:17:27;;;;;;;6.40;5.78;;;23.30;99.90;;;;;;5115667;28;20096;-60
2022/06/08 00:19:54;;;;;;;6.70;6.10;;;23.40;99.90;;;;;;5115600;28;20470;-59
2022/06/08 00:22:20;;;;;;;5.68;5.10;;;23.40;99.90;;;;;;5115441;28;20037;-59
2022/06/08 00:24:46;;;;;;;4.95;4.53;;;23.40;99.90;;;;;;5115354;28;20015;-59
2022/06/08 00:27:12;;;;;;;5.97;5.38;;;23.40;99.90;;;;;;5115444;28;20032;-59
2022/06/08 00:29:38;;;;;;;5.25;4.85;;;23.40;99.90;;;;;;5115618;28;20024;-59
2022/06/08 00:32:04;;;;;;;5.75;5.25;;;23.40;99.90;;;;;;5115343;28;20478;-59
2022/06/08 00:34:29;;;;;;;5.30;4.90;;;23.40;99.90;;;;;;5115303;28;20568;-60
2022/06/08 00:36:55;;;;;;;4.80;4.40;;;23.40;99.90;;;;;;5115377;28;20027;-59
2022/06/08 00:39:21;;;;;;;4.00;3.60;;;23.40;99.90;;;;;;5115311;28;20035;-59
2022/06/08 00:41:52;;;;;;;5.32;4.93;;;23.50;99.90;;;;;;5115237;28;20027;-59
2022/06/08 00:44:37;;;;;;;4.47;4.05;;;23.50;99.90;;;;;;5115056;28;20019;-59
2022/06/08 00:47:05;;;;;;;5.10;4.57;;;23.40;99.90;;;;;;5115292;28;20028;-59
2022/06/08 00:50:12;;;;;;;5.57;5.07;;;23.40;99.90;;;;;;5114984;28;20027;-60
2022/06/08 00:52:38;;;;;;;6.82;6.20;;;23.30;99.90;;;;;;5084553;28;20028;-60
2022/06/08 00:55:08;;;;;;;10.52;8.32;;;23.20;99.90;;;;;;5114723;28;20094;-59
2022/06/08 00:57:47;;;;;;;8.68;7.10;;;22.90;99.90;;;;;;5114793;28;20055;-59
2022/06/08 01:00:24;;;;;;;6.53;5.93;;;22.70;99.90;;;;;;5115003;28;20401;-59
2022/06/08 01:02:50;;;;;;;7.43;6.72;;;22.70;99.90;;;;;;5114746;28;20053;-60
2022/06/08 01:05:22;;;;;;;6.60;6.00;;;22.60;99.90;;;;;;5114637;28;20100;-60
2022/06/08 01:07:55;;;;;;;5.97;5.38;;;22.60;99.90;;;;;;5114440;28;20476;-59
2022/06/08 01:10:28;;;;;;;6.53;5.85;;;22.60;99.90;;;;;;5114669;28;20020;-59
2022/06/08 01:12:56;;;;;;;5.25;4.75;;;22.70;99.90;;;;;;5114597;28;20073;-59
2022/06/08 01:15:26;;;;;;;5.30;4.90;;;22.70;99.90;;;;;;5114500;28;20084;-59
2022/06/08 01:17:52;;;;;;;5.60;5.05;;;22.80;99.90;;;;;;5114421;28;20106;-60
2022/06/08 01:20:17;;;;;;;6.40;5.03;;;22.90;99.90;;;;;;5114005;28;20551;-59
2022/06/08 01:22:43;;;;;;;5.20;4.70;;;22.90;99.90;;;;;;5114134;28;20107;-60
2022/06/08 01:25:12;;;;;;;4.68;4.28;;;22.90;99.90;;;;;;5114342;28;20055;-59
2022/06/08 01:28:02;;;;;;;4.60;4.20;;;23.00;99.90;;;;;;5114132;28;20150;-59
2022/06/08 01:30:47;;;;;;;7.05;6.07;;;23.10;99.90;;;;;;5114489;28;20028;-59
2022/06/08 01:33:30;;;;;;;5.40;4.90;;;23.10;99.90;;;;;;5114515;28;20041;-59
2022/06/08 01:36:11;;;;;;;4.78;4.38;;;22.90;99.90;;;;;;5114031;28;20030;-59
2022/06/08 01:38:36;;;;;;;5.03;4.63;;;22.90;99.90;;;;;;5113909;28;20101;-59
2022/06/08 01:41:21;;;;;;;6.15;5.55;;;22.90;99.90;;;;;;5114001;28;20024;-59
2022/06/08 01:44:17;;;;;;;5.35;4.90;;;22.90;99.90;;;;;;5114047;28;20020;-59
2022/06/08 01:47:12;;;;;;;5.18;4.68;;;22.80;99.90;;;;;;5114056;28;20103;-59
2022/06/08 01:49:40;;;;;;;5.07;4.60;;;22.70;99.90;;;;;;5105272;28;20085;-60
2022/06/08 01:52:21;;;;;;;4.80;3.78;;;22.70;99.90;;;;;;5113767;28;20023;-59
2022/06/08 01:55:01;;;;;;;4.72;4.32;;;22.70;99.90;;;;;;5113906;28;20028;-59
2022/06/08 01:57:54;;;;;;;5.85;4.50;;;22.70;99.90;;;;;;5113783;28;20122;-59
2022/06/08 02:00:21;;;;;;;5.00;4.50;;;22.60;99.90;;;;;;5114128;28;20063;-59
2022/06/08 02:03:21;;;;;;;5.28;4.78;;;22.50;99.90;;;;;;5113821;28;20032;-59
2022/06/08 02:06:06;;;;;;;6.53;5.93;;;22.50;99.90;;;;;;5113554;28;20474;-59
2022/06/08 02:08:56;;;;;;;4.72;4.43;;;22.40;99.90;;;;;;5113580;28;20028;-59
2022/06/08 02:12:00;;;;;;;5.63;4.88;;;22.20;99.90;;;;;;5113745;28;20381;-60
2022/06/08 02:14:35;;;;;;;4.63;4.22;;;22.20;99.90;;;;;;5050986;28;20078;-59
2022/06/08 02:17:18;;;;;;;4.63;4.22;;;22.30;99.90;;;;;;5104172;28;20481;-59
2022/06/08 02:19:53;;;;;;;4.35;3.80;;;22.30;99.90;;;;;;5113773;28;20049;-59
2022/06/08 02:22:21;;;;;;;4.45;3.83;;;22.30;99.90;;;;;;5113623;28;20164;-60
2022/06/08 02:24:58;;;;;;;4.05;3.75;;;22.30;99.90;;;;;;5113529;28;20386;-59
2022/06/08 02:27:40;;;;;;;5.43;4.93;;;22.30;99.90;;;;;;5113386;28;20028;-59
2022/06/08 02:30:11;;;;;;;6.60;5.25;;;22.20;99.90;;;;;;5113810;28;20020;-59
2022/06/08 02:35:48;;;;;;;7.35;6.55;;;22.10;99.90;;;;;;5117728;28;20062;-59
2022/06/08 02:38:18;;;;;;;7.13;6.43;;;22.00;99.90;;;;;;5117611;28;20586;-59
2022/06/08 02:40:57;;;;;;;5.88;5.28;;;21.90;99.90;;;;;;5117677;28;20088;-60
2022/06/08 02:43:41;;;;;;;6.45;5.85;;;21.80;99.90;;;;;;5118024;28;20047;-60
2022/06/08 02:46:30;;;;;;;5.63;5.13;;;21.90;99.90;;;;;;5117753;28;20412;-60
2022/06/08 02:48:56;;;;;;;5.32;4.82;;;22.00;99.90;;;;;;5109060;28;20065;-59
2022/06/08 02:51:29;;;;;;;4.72;4.32;;;22.00;99.90;;;;;;5117408;28;20114;-59
2022/06/08 02:53:57;;;;;;;5.13;4.60;;;22.20;99.90;;;;;;5117549;28;20053;-59
2022/06/08 02:56:42;;;;;;;6.97;5.65;;;22.20;99.90;;;;;;5117283;28;20054;-59
2022/06/08 02:59:14;;;;;;;5.93;5.32;;;22.20;99.90;;;;;;5117395;28;20019;-59
2022/06/08 03:02:03;;;;;;;5.30;4.90;;;22.00;99.90;;;;;;5117152;28;20072;-60
2022/06/08 03:04:41;;;;;;;5.20;4.80;;;21.90;99.90;;;;;;5116909;28;20085;-59
2022/06/08 03:07:13;;;;;;;5.22;4.55;;;21.90;99.90;;;;;;5116984;28;20023;-60
2022/06/08 03:09:40;;;;;;;4.68;4.28;;;21.90;99.90;;;;;;5116928;28;20400;-59
2022/06/08 03:12:15;;;;;;;4.30;3.90;;;22.00;99.90;;;;;;5117075;28;20019;-59
2022/06/08 03:14:42;;;;;;;4.38;3.90;;;22.00;99.90;;;;;;5117142;28;20385;-59
2022/06/08 03:17:10;;;;;;;4.10;3.80;;;22.00;99.90;;;;;;5117018;28;20028;-60
2022/06/08 03:19:37;;;;;;;3.95;3.65;;;22.00;99.90;;;;;;5116630;28;20026;-60
2022/06/08 03:22:04;;;;;;;3.78;3.30;;;22.10;99.90;;;;;;5116649;28;20019;-60
2022/06/08 03:24:30;;;;;;;3.28;3.00;;;22.00;99.90;;;;;;5116733;28;20057;-59
2022/06/08 03:27:00;;;;;;;3.67;3.20;;;22.10;99.90;;;;;;5116687;28;20120;-59
2022/06/08 03:29:29;;;;;;;3.63;3.33;;;22.00;99.90;;;;;;5116556;28;20065;-59
2022/06/08 03:31:54;;;;;;;3.47;3.17;;;22.10;99.90;;;;;;5116848;28;20381;-59
2022/06/08 03:34:21;;;;;;;3.60;3.30;;;22.10;99.90;;;;;;5116637;28;20043;-60
2022/06/08 03:36:46;;;;;;;4.13;3.72;;;22.10;99.90;;;;;;5116297;28;20023;-59
2022/06/08 03:39:12;;;;;;;4.60;4.20;;;22.10;99.90;;;;;;5116470;28;20027;-59
2022/06/08 03:41:38;;;;;;;4.15;3.85;;;22.00;99.90;;;;;;5116402;28;20019;-59
2022/06/08 03:44:04;;;;;;;6.82;4.85;;;22.00;99.90;;;;;;5115710;28;20393;-59
2022/06/08 03:46:35;;;;;;;7.38;6.57;;;22.00;99.90;;;;;;5116232;28;20016;-59
2022/06/08 03:49:02;;;;;;;5.82;5.32;;;21.90;99.90;;;;;;5116296;28;20020;-59
2022/06/08 03:51:28;;;;;;;7.53;6.82;;;21.80;99.90;;;;;;5116263;28;20023;-60
2022/06/08 03:54:03;;;;;;;6.65;6.05;;;21.90;99.90;;;;;;5116128;28;20107;-59
2022/06/08 03:56:31;;;;;;;9.02;8.13;;;21.90;99.90;;;;;;5115876;28;20118;-59
2022/06/08 03:58:57;;;;;;;14.73;13.15;;;21.90;99.90;;;;;;5116274;28;20028;-59
2022/06/08 04:01:24;;;;;;;10.63;9.55;;;21.80;99.90;;;;;;5116297;28;20033;-59
2022/06/08 04:03:52;;;;;;;7.15;6.55;;;21.80;99.90;;;;;;5116083;28;20103;-59
2022/06/08 04:06:19;;;;;;;7.25;6.53;;;21.80;99.90;;;;;;5115892;28;20030;-59
2022/06/08 04:08:45;;;;;;;7.90;7.20;;;21.80;99.90;;;;;;5115784;28;20027;-59
2022/06/08 04:11:11;;;;;;;15.95;13.32;;;21.90;99.90;;;;;;5116131;28;20072;-59
2022/06/08 04:13:37;;;;;;;12.32;10.70;;;21.90;99.90;;;;;;5115640;28;20382;-59
2022/06/08 04:16:03;;;;;;;10.73;8.60;;;21.90;99.90;;;;;;5115694;28;20493;-59
2022/06/08 04:18:30;;;;;;;8.15;7.35;;;21.80;99.90;;;;;;5115471;28;20104;-59
2022/06/08 04:20:57;;;;;;;10.30;9.07;;;21.90;99.90;;;;;;5115662;28;20024;-59
2022/06/08 04:23:26;;;;;;;8.15;7.35;;;22.00;99.90;;;;;;5115531;28;20539;-59
2022/06/08 04:25:53;;;;;;;7.43;6.72;;;21.90;99.90;;;;;;5115578;28;20033;-59
2022/06/08 04:28:20;;;;;;;7.68;6.82;;;21.80;99.90;;;;;;5115350;28;20024;-59
2022/06/08 04:30:46;;;;;;;6.57;5.90;;;21.70;99.90;;;;;;5115127;28;20034;-60
2022/06/08 04:33:12;;;;;;;9.80;8.90;;;21.70;99.90;;;;;;5115363;28;20024;-59
2022/06/08 04:35:39;;;;;;;29.98;11.05;;;21.60;99.90;;;;;;5115292;28;20035;-59
2022/06/08 04:38:06;;;;;;;12.85;10.65;;;21.40;99.90;;;;;;5115491;28;20027;-59
2022/06/08 04:40:33;;;;;;;8.40;7.10;;;21.20;99.90;;;;;;5115361;28;20019;-59
2022/06/08 04:42:58;;;;;;;5.43;4.97;;;20.80;99.90;;;;;;5115238;28;20470;-59
2022/06/08 04:45:25;;;;;;;4.40;3.90;;;20.60;99.90;;;;;;5115179;28;20034;-59
2022/06/08 04:47:51;;;;;;;4.47;3.75;;;20.60;99.90;;;;;;5115046;28;20509;-60
2022/06/08 04:50:17;;;;;;;4.82;3.83;;;20.50;99.90;;;;;;5115032;28;20044;-59
2022/06/08 04:52:42;;;;;;;3.60;2.47;;;20.40;99.90;;;;;;5114894;28;20027;-59
2022/06/08 04:55:11;;;;;;;2.10;1.73;;;20.00;99.90;;;;;;5115051;28;20053;-59
2022/06/08 04:57:37;;;;;;;2.47;1.30;;;19.80;99.90;;;;;;5114428;28;20055;-59
2022/06/08 05:00:12;;;;;;;2.40;1.30;;;19.70;99.90;;;;;;5116674;27;20034;-59
2022/06/08 05:02:49;;;;;;;1.48;1.15;;;19.60;99.90;;;;;;5113360;28;20721;-59
2022/06/08 05:05:28;;;;;;;1.17;0.90;;;19.60;99.90;;;;;;5111911;28;20462;-57
2022/06/08 05:07:55;;;;;;;1.45;0.80;;;19.70;99.90;;;;;;5112226;28;20026;-54
2022/06/08 05:10:24;;;;;;;1.77;1.20;;;19.80;99.90;;;;;;5113066;28;20020;-56
2022/06/08 05:12:50;;;;;;;1.27;0.80;;;19.80;99.90;;;;;;5113798;28;20028;-57
2022/06/08 05:15:31;;;;;;;1.48;0.77;;;19.80;99.90;;;;;;5114443;28;20026;-51
2022/06/08 05:17:58;;;;;;;2.70;0.98;;;19.80;99.90;;;;;;5112758;28;20019;-58
2022/06/08 05:20:25;;;;;;;0.93;0.70;;;19.90;99.90;;;;;;5114205;27;20019;-59
2022/06/08 05:22:51;;;;;;;0.73;0.70;;;20.00;99.90;;;;;;5121013;27;20019;-58
2022/06/08 05:25:21;;;;;;;1.38;0.60;;;20.10;99.90;;;;;;5116898;27;20031;-57
2022/06/08 05:27:47;;;;;;;0.85;0.70;;;20.10;99.90;;;;;;5118281;27;20027;-57
2022/06/08 05:30:13;;;;;;;2.15;0.90;;;20.10;99.90;;;;;;5118010;27;20113;-53
2022/06/08 05:32:39;;;;;;;1.15;0.80;;;20.10;99.90;;;;;;5125795;27;20023;-60
2022/06/08 05:35:06;;;;;;;1.27;0.90;;;19.90;99.90;;;;;;5114972;27;20046;-56
2022/06/08 05:37:31;;;;;;;1.48;1.13;;;19.90;99.90;;;;;;5123142;27;20090;-60
2022/06/08 05:39:57;;;;;;;0.82;0.80;;;20.00;99.90;;;;;;5132250;27;20152;-56
2022/06/08 05:42:23;;;;;;;1.20;1.00;;;20.00;99.90;;;;;;5132641;27;20027;-57
2022/06/08 05:44:49;;;;;;;4.65;1.35;;;20.00;99.90;;;;;;5132281;27;20027;-52
2022/06/08 05:47:16;;;;;;;8.23;1.98;;;20.00;99.90;;;;;;5132200;27;20027;-61
2022/06/08 05:49:42;;;;;;;2.92;1.15;;;19.90;99.90;;;;;;5126673;27;20020;-56
2022/06/08 05:52:09;;;;;;;1.10;1.00;;;19.80;99.90;;;;;;5121290;27;20024;-60
2022/06/08 05:54:35;;;;;;;3.35;1.00;;;19.90;99.90;;;;;;5128294;27;20071;-55
2022/06/08 05:57:01;;;;;;;2.47;0.80;;;19.90;99.90;;;;;;5117330;27;20042;-56
2022/06/08 05:59:27;;;;;;;4.57;1.00;;;20.00;99.90;;;;;;5125363;27;20057;-55
2022/06/08 06:01:53;;;;;;;2.22;1.70;;;20.20;99.90;;;;;;5120172;27;20055;-53
2022/06/08 06:04:19;;;;;;;2.75;1.70;;;20.30;99.90;;;;;;5118700;27;20039;-53
2022/06/08 06:06:48;;;;;;;3.63;2.05;;;20.30;99.90;;;;;;5115723;27;20522;-57
2022/06/08 06:09:17;;;;;;;4.85;3.60;;;20.40;99.90;;;;;;5119842;27;20104;-57
2022/06/08 06:11:43;;;;;;;4.22;3.83;;;20.40;99.90;;;;;;5131143;27;20015;-58
2022/06/08 06:14:09;;;;;;;7.03;6.07;;;20.40;99.90;;;;;;5131339;28;20079;-59
2022/06/08 06:16:35;;;;;;;9.23;6.30;;;20.30;99.90;;;;;;5111881;28;20059;-57
2022/06/08 06:19:01;;;;;;;10.57;7.85;;;20.40;99.90;;;;;;5109673;28;20047;-53
2022/06/08 06:21:28;;;;;;;12.68;8.95;;;20.40;99.90;;;;;;5129961;28;20035;-55
2022/06/08 06:23:55;;;;;;;9.35;7.45;;;20.40;99.90;;;;;;5133335;28;20023;-59
2022/06/08 06:26:21;;;;;;;8.95;7.30;;;20.20;99.90;;;;;;5132686;28;20076;-60
2022/06/08 06:28:47;;;;;;;9.52;6.28;;;20.20;99.90;;;;;;5133299;28;20031;-54
2022/06/08 06:31:23;;;;;;;8.77;5.75;;;20.10;99.90;;;;;;5127811;28;20023;-53
2022/06/08 06:33:49;;;;;;;8.13;4.95;;;19.90;99.90;;;;;;5125502;28;20556;-56
2022/06/08 06:36:15;;;;;;;6.35;4.22;;;20.00;99.90;;;;;;5127105;28;20094;-56
2022/06/08 06:38:41;;;;;;;6.30;4.05;;;20.00;99.90;;;;;;5128469;28;20019;-57
2022/06/08 06:41:07;;;;;;;4.85;3.38;;;20.10;99.90;;;;;;5134689;27;20031;-58
2022/06/08 06:43:35;;;;;;;3.78;2.85;;;20.20;99.90;;;;;;5127647;27;20024;-55
2022/06/08 06:46:01;;;;;;;4.45;2.85;;;20.30;99.90;;;;;;5133505;27;20027;-57
2022/06/08 06:48:27;;;;;;;3.47;3.00;;;20.20;99.90;;;;;;5127345;28;20031;-58
2022/06/08 06:50:52;;;;;;;4.00;2.63;;;20.30;99.90;;;;;;5132011;27;20027;-59
2022/06/08 06:53:18;;;;;;;3.67;2.97;;;20.40;99.90;;;;;;5126775;27;20027;-60
2022/06/08 06:55:44;;;;;;;3.03;2.50;;;20.50;99.90;;;;;;5114124;28;20038;-60
2022/06/08 06:58:10;;;;;;;6.22;2.78;;;20.60;99.90;;;;;;5124941;27;20035;-60
2022/06/08 07:00:36;;;;;;;6.43;4.07;;;20.80;99.90;;;;;;5127187;27;20116;-63
2022/06/08 07:03:02;;;;;;;6.65;3.70;;;20.80;99.90;;;;;;5110613;28;20032;-59
2022/06/08 07:05:34;;;;;;;5.40;3.00;;;20.90;99.90;;;;;;5121068;28;20023;-63
2022/06/08 07:07:59;;;;;;;6.82;3.50;;;21.20;99.90;;;;;;5117548;28;20028;-63
2022/06/08 07:10:26;;;;;;;8.50;4.03;;;21.50;99.90;;;;;;5110024;28;20080;-59
2022/06/08 07:12:51;;;;;;;3.95;2.97;;;21.70;99.90;;;;;;5115251;28;20031;-64
2022/06/08 07:15:20;;;;;;;11.10;6.35;;;22.00;99.90;;;;;;5109823;28;20031;-62
2022/06/08 07:17:46;;;;;;;8.00;5.60;;;21.90;99.90;;;;;;5121766;27;20466;-62
2022/06/08 07:20:13;;;;;;;8.02;5.15;;;21.80;99.90;;;;;;5124067;27;20027;-59
2022/06/08 07:22:39;;;;;;;13.07;8.27;;;21.60;99.90;;;;;;5130008;27;20161;-62
2022/06/08 07:25:07;;;;;;;9.88;6.10;;;21.60;99.90;;;;;;5128893;27;20038;-67
2022/06/08 07:27:33;;;;;;;10.82;7.03;;;21.60;99.90;;;;;;5131673;27;20165;-61
2022/06/08 07:29:58;;;;;;;9.25;6.28;;;21.40;99.90;;;;;;5129107;27;20110;-62
2022/06/08 07:32:24;;;;;;;7.55;5.72;;;21.30;99.90;;;;;;5124754;27;20025;-60
2022/06/08 07:34:50;;;;;;;6.75;5.68;;;21.20;99.90;;;;;;5120960;27;20019;-66
2022/06/08 07:37:15;;;;;;;8.55;7.13;;;21.20;99.90;;;;;;5131864;27;20023;-63
2022/06/08 07:39:41;;;;;;;8.60;6.40;;;21.20;99.90;;;;;;5132462;27;20017;-64
2022/06/08 07:42:11;;;;;;;7.07;5.82;;;21.10;99.90;;;;;;5131582;27;20107;-61
2022/06/08 07:44:37;;;;;;;7.70;6.38;;;21.30;99.90;;;;;;5112718;27;20027;-64
2022/06/08 07:47:02;;;;;;;8.50;7.57;;;21.50;99.90;;;;;;5134079;27;20031;-62
2022/06/08 07:49:37;;;;;;;7.82;6.85;;;21.70;99.90;;;;;;5134238;27;20473;-58
2022/06/08 07:52:16;;;;;;;8.70;6.50;;;21.90;99.90;;;;;;5132916;27;20478;-63
2022/06/08 07:54:42;;;;;;;6.35;5.32;;;21.90;99.90;;;;;;5135046;27;20129;-62
2022/06/08 07:57:16;;;;;;;5.75;4.63;;;22.00;99.90;;;;;;5127451;27;20040;-63
2022/06/08 07:59:41;;;;;;;3.92;3.60;;;21.80;99.90;;;;;;5120684;27;20020;-57
2022/06/08 08:02:08;;;;;;;3.83;3.17;;;21.80;99.90;;;;;;5120938;27;20028;-52
2022/06/08 08:04:35;;;;;;;4.80;3.67;;;21.80;99.90;;;;;;5118331;27;20032;-55
2022/06/08 08:07:01;;;;;;;4.50;3.20;;;21.80;99.90;;;;;;5116119;27;20315;-62
2022/06/08 08:09:27;;;;;;;2.80;2.10;;;21.90;99.90;;;;;;5117435;27;20114;-60
2022/06/08 08:11:54;;;;;;;2.05;1.80;;;21.80;99.90;;;;;;5120422;27;20160;-62
2022/06/08 08:14:23;;;;;;;2.17;1.90;;;21.80;99.90;;;;;;5129925;27;20504;-59
2022/06/08 08:16:49;;;;;;;1.83;1.40;;;21.90;99.90;;;;;;5111903;28;20028;-58
2022/06/08 08:19:21;;;;;;;1.05;0.95;;;22.10;99.90;;;;;;5131638;27;20114;-55
2022/06/08 08:21:47;;;;;;;2.25;1.10;;;22.10;99.90;;;;;;5135053;27;20035;-52
2022/06/08 08:24:14;;;;;;;1.50;0.80;;;22.10;99.90;;;;;;5135167;27;20027;-65
2022/06/08 08:26:42;;;;;;;1.05;0.73;;;22.00;99.90;;;;;;5133808;27;20030;-59
2022/06/08 08:29:07;;;;;;;0.88;0.88;;;22.10;99.90;;;;;;5133084;27;20027;-60
2022/06/08 08:31:33;;;;;;;0.77;0.77;;;22.10;99.90;;;;;;5121708;27;20023;-61
2022/06/08 08:33:59;;;;;;;0.88;0.60;;;22.20;99.90;;;;;;5121032;27;20034;-60
2022/06/08 08:36:25;;;;;;;0.70;0.70;;;21.80;99.90;;;;;;5124002;27;20397;-64
2022/06/08 08:38:51;;;;;;;0.93;0.65;;;21.80;99.90;;;;;;5119514;27;20035;-62
2022/06/08 08:44:24;;;;;;;0.82;0.57;;;22.00;99.90;;;;;;5124586;27;20045;-63
2022/06/08 08:47:05;;;;;;;0.55;0.55;;;22.10;99.90;;;;;;5130185;27;20034;-69
2022/06/08 08:49:33;;;;;;;0.82;0.60;;;22.30;99.90;;;;;;5130007;27;20046;-65
2022/06/08 08:52:02;;;;;;;0.93;0.50;;;22.40;99.90;;;;;;5128997;27;20466;-64
2022/06/08 08:54:38;;;;;;;1.35;0.70;;;22.50;99.90;;;;;;5125380;27;20059;-61
2022/06/08 08:57:20;;;;;;;1.02;0.85;;;22.60;99.90;;;;;;5131221;27;20039;-63
2022/06/08 08:59:51;;;;;;;1.38;0.95;;;22.50;99.90;;;;;;5112971;27;20489;-65
2022/06/08 09:05:21;;;;;;;0.88;0.60;;;22.40;99.90;;;;;;5112981;27;20066;-62
2022/06/08 09:07:47;;;;;;;0.77;0.70;;;22.40;99.90;;;;;;5112754;28;20028;-62
2022/06/08 09:10:19;;;;;;;1.42;0.70;;;22.50;99.90;;;;;;5119907;27;20474;-62
2022/06/08 09:12:45;;;;;;;0.60;0.60;;;22.50;99.90;;;;;;5116292;27;20538;-64
2022/06/08 09:15:13;;;;;;;1.02;0.70;;;22.40;99.90;;;;;;5115626;27;20485;-62
2022/06/08 09:17:52;;;;;;;1.08;0.50;;;22.40;99.90;;;;;;5124785;27;20027;-62
2022/06/08 09:20:36;;;;;;;2.05;0.70;;;22.30;99.90;;;;;;5122644;27;20116;-62
2022/06/08 09:23:24;;;;;;;1.10;0.77;;;22.40;99.90;;;;;;5112740;27;20338;-62
2022/06/08 09:26:07;;;;;;;0.63;0.40;;;22.50;99.90;;;;;;5109497;27;20035;-63
2022/06/08 09:28:34;;;;;;;1.05;0.88;;;22.70;99.90;;;;;;5128519;27;20496;-64
2022/06/08 09:34:27;;;;;;;3.00;0.80;;;23.30;99.90;;;;;;5128156;27;20052;-69
2022/06/08 09:37:26;;;;;;;1.67;0.90;;;23.30;99.90;;;;;;5127009;27;20045;-63
2022/06/08 09:39:57;;;;;;;1.60;0.70;;;23.20;99.90;;;;;;5071810;27;20499;-62
2022/06/08 09:42:44;;;;;;;0.68;0.68;;;23.20;99.90;;;;;;5125262;27;20076;-61
2022/06/08 09:45:37;;;;;;;1.08;0.75;;;23.40;99.90;;;;;;5108997;28;20115;-62
2022/06/08 09:51:35;;;;;;;2.17;0.70;;;24.10;99.90;;;;;;5123544;27;20031;-62
2022/06/08 09:54:36;;;;;;;0.50;0.50;;;24.20;99.90;;;;;;5125446;27;20315;-61
2022/06/08 09:57:08;;;;;;;1.73;0.70;;;24.50;99.90;;;;;;5126041;27;20382;-59
2022/06/08 09:59:42;;;;;;;1.00;0.50;;;24.90;99.90;;;;;;5126839;27;20027;-60
2022/06/08 10:02:28;;;;;;;0.60;0.60;;;25.00;99.90;;;;;;5130176;27;20015;-61
2022/06/08 10:05:26;;;;;;;1.75;0.60;;;25.00;99.90;;;;;;5131613;27;20023;-62
2022/06/08 10:08:04;;;;;;;0.50;0.50;;;25.20;99.90;;;;;;5129523;27;20031;-63
2022/06/08 10:10:42;;;;;;;0.55;0.50;;;25.70;99.90;;;;;;5114624;27;20042;-60
2022/06/08 10:13:19;;;;;;;1.17;0.70;;;26.00;99.90;;;;;;5125547;28;20024;-60
2022/06/08 10:15:52;;;;;;;1.15;0.90;;;26.20;98.80;;;;;;5123838;28;20413;-61
2022/06/08 10:18:43;;;;;;;1.15;0.80;;;26.30;98.50;;;;;;5116124;28;20027;-59
2022/06/08 10:21:24;;;;;;;2.10;0.80;;;26.60;95.10;;;;;;5131913;28;20129;-62
2022/06/08 10:24:04;;;;;;;1.23;0.60;;;27.40;94.90;;;;;;5128924;28;20027;-60
2022/06/08 10:26:35;;;;;;;0.70;0.65;;;28.20;91.80;;;;;;5131029;28;20028;-60
2022/06/08 10:29:27;;;;;;;0.40;0.40;;;27.80;84.20;;;;;;5132015;28;20023;-64
2022/06/08 10:32:16;;;;;;;0.52;0.40;;;27.40;90.40;;;;;;5130959;28;20042;-60
2022/06/08 10:34:42;;;;;;;0.50;0.40;;;27.30;86.90;;;;;;5146507;27;20025;-62
2022/06/08 10:37:15;;;;;;;0.77;0.50;;;27.40;86.30;;;;;;5124544;27;20036;-61
2022/06/08 10:39:41;;;;;;;1.30;0.50;;;27.30;81.30;;;;;;5128935;28;20019;-61
2022/06/08 10:42:39;;;;;;;0.98;0.50;;;27.20;85.20;;;;;;5130789;28;20386;-62
2022/06/08 10:45:36;;;;;;;0.90;0.68;;;27.30;81.00;;;;;;5129074;28;20106;-61
2022/06/08 10:48:11;;;;;;;1.60;0.90;;;26.70;91.30;;;;;;5131086;28;20516;-61
2022/06/08 10:50:47;;;;;;;0.60;0.55;;;26.50;90.50;;;;;;5130360;28;20027;-61
2022/06/08 10:56:32;;;;;;;0.50;0.50;;;26.90;90.20;;;;;;5135661;27;20049;-60
2022/06/08 10:59:07;;;;;;;0.40;0.40;;;27.60;91.50;;;;;;5122113;27;20462;-63
2022/06/08 11:01:57;;;;;;;0.60;0.60;;;27.60;85.90;;;;;;5122761;27;20396;-60
2022/06/08 11:04:35;;;;;;;1.75;0.82;;;27.60;87.30;;;;;;5117704;27;20052;-61
2022/06/08 11:07:12;;;;;;;1.08;0.50;;;27.60;86.60;;;;;;5130354;27;20152;-61
2022/06/08 11:09:39;;;;;;;1.85;0.65;;;28.30;91.10;;;;;;5124230;27;20023;-63
2022/06/08 11:12:20;;;;;;;0.80;0.60;;;28.60;84.60;;;;;;5136034;27;20019;-63
2022/06/08 11:14:52;;;;;;;0.60;0.50;;;29.00;81.70;;;;;;5137125;27;20019;-60
2022/06/08 11:17:38;;;;;;;0.60;0.60;;;29.10;79.70;;;;;;5137037;27;20381;-60
2022/06/08 11:20:20;;;;;;;2.80;0.80;;;28.70;80.70;;;;;;5133042;27;20023;-62
2022/06/08 11:22:54;;;;;;;0.80;0.80;;;28.60;82.00;;;;;;5134193;27;20098;-55
2022/06/08 11:25:46;;;;;;;0.73;0.60;;;28.40;77.50;;;;;;5130251;27;20007;-54
2022/06/08 11:28:28;;;;;;;0.73;0.45;;;28.40;79.10;;;;;;5118948;27;20035;-56
2022/06/08 11:30:58;;;;;;;0.93;0.60;;;28.30;78.20;;;;;;5132688;27;20039;-52
2022/06/08 11:33:55;;;;;;;0.60;0.60;;;28.20;78.40;;;;;;5132940;27;20072;-59
2022/06/08 11:36:47;;;;;;;0.70;0.70;;;28.10;78.20;;;;;;5129466;27;20022;-59
2022/06/08 11:39:40;;;;;;;0.45;0.45;;;28.50;76.20;;;;;;5102785;28;20024;-58
2022/06/08 11:42:14;;;;;;;0.73;0.68;;;29.10;75.80;;;;;;5116862;27;20382;-61
2022/06/08 11:44:56;;;;;;;0.57;0.50;;;29.50;83.70;;;;;;5115861;28;20470;-58
2022/06/08 11:47:54;;;;;;;0.95;0.60;;;29.70;75.50;;;;;;5116024;28;20028;-59
2022/06/08 11:50:25;;;;;;;0.60;0.60;;;29.60;76.10;;;;;;5110512;28;20066;-60
2022/06/08 11:53:03;;;;;;;1.27;0.50;;;29.20;75.60;;;;;;5116013;28;20470;-59
2022/06/08 11:55:34;;;;;;;0.70;0.70;;;28.90;73.10;;;;;;5133404;27;20368;-60
2022/06/08 11:58:06;;;;;;;1.27;0.60;;;28.70;75.40;;;;;;5118751;27;20391;-59
2022/06/08 12:00:34;;;;;;;0.55;0.55;;;28.60;73.00;;;;;;5113910;28;20027;-56
2022/06/08 12:03:24;;;;;;;0.77;0.50;;;28.60;72.90;;;;;;5132996;27;20391;-60
2022/06/08 12:05:51;;;;;;;0.50;0.50;;;28.60;74.00;;;;;;5120206;27;20039;-58
2022/06/08 12:08:42;;;;;;;0.60;0.60;;;28.50;73.30;;;;;;5127101;27;20027;-58
2022/06/08 12:11:11;;;;;;;1.35;0.90;;;28.40;74.40;;;;;;5135259;27;20027;-56
2022/06/08 12:13:38;;;;;;;1.52;0.95;;;28.30;74.30;;;;;;5135554;27;20034;-58
2022/06/08 12:16:20;;;;;;;1.33;0.73;;;28.10;76.20;;;;;;5136256;27;20023;-55
2022/06/08 12:19:12;;;;;;;0.82;0.82;;;27.70;78.80;;;;;;5136324;27;20438;-60
2022/06/08 12:21:41;;;;;;;2.58;0.95;;;27.80;80.90;;;;;;5123783;27;20063;-58
2022/06/08 12:24:28;;;;;;;1.20;1.00;;;27.70;79.70;;;;;;5123494;27;20502;-59
2022/06/08 12:27:17;;;;;;;1.38;0.90;;;27.40;80.90;;;;;;5123364;27;20043;-61
2022/06/08 12:29:53;;;;;;;1.52;1.10;;;27.70;87.00;;;;;;5124526;27;20031;-58
2022/06/08 12:32:33;;;;;;;1.25;0.90;;;28.30;85.10;;;;;;5126526;27;20049;-55
2022/06/08 12:35:07;;;;;;;1.10;0.70;;;28.60;80.30;;;;;;5134245;27;20015;-60
2022/06/08 12:37:33;;;;;;;2.40;0.60;;;28.70;74.40;;;;;;5117952;27;20029;-61
2022/06/08 12:40:16;;;;;;;0.80;0.80;;;28.60;75.70;;;;;;5112527;28;20103;-59
2022/06/08 12:42:50;;;;;;;1.38;0.90;;;28.40;79.50;;;;;;5114320;27;20099;-58
2022/06/08 12:45:47;;;;;;;1.20;0.90;;;28.10;77.00;;;;;;5113915;28;20020;-60
2022/06/08 12:48:37;;;;;;;1.35;1.25;;;27.80;76.70;;;;;;5114586;28;20127;-63
2022/06/08 12:51:37;;;;;;;2.22;1.08;;;27.40;78.00;;;;;;5115035;28;20072;-57
2022/06/08 12:54:33;;;;;;;3.67;1.80;;;26.90;80.60;;;;;;5115405;28;20030;-59
2022/06/08 12:57:14;;;;;;;3.47;2.45;;;26.70;80.90;;;;;;5114843;28;20123;-60
2022/06/08 12:59:43;;;;;;;2.03;1.92;;;26.70;85.80;;;;;;5113335;28;20030;-58
2022/06/08 13:02:26;;;;;;;2.03;1.92;;;26.40;85.30;;;;;;5111373;28;20243;-54
2022/06/08 13:04:53;;;;;;;1.30;1.20;;;26.20;84.00;;;;;;5112089;28;20097;-60
2022/06/08 13:07:23;;;;;;;1.30;1.20;;;26.10;83.60;;;;;;5111946;28;20492;-61
2022/06/08 13:09:49;;;;;;;2.28;1.70;;;26.10;85.30;;;;;;5112105;28;20030;-61
2022/06/08 13:12:21;;;;;;;1.42;1.33;;;26.20;86.20;;;;;;5112046;28;20110;-58
2022/06/08 13:14:47;;;;;;;;;;;26.20;85.90;;;;;;5112895;28;20359;-60
2022/06/08 13:17:13;;;;;;;2.47;2.28;;;26.00;90.00;;;;;;5113768;28;19919;-58
2022/06/08 13:19:39;;;;;;;3.35;3.05;;;26.00;90.50;;;;;;5114528;28;20431;-63
2022/06/08 13:22:06;;;;;;;3.28;2.95;;;26.10;89.20;;;;;;5114421;28;20073;-60
2022/06/08 13:24:32;;;;;;;3.60;2.88;;;26.00;90.10;;;;;;5114619;28;20094;-58
2022/06/08 13:26:57;;;;;;;4.78;3.40;;;26.00;90.00;;;;;;5114420;28;20052;-55
2022/06/08 13:29:23;;;;;;;3.55;3.25;;;25.90;92.20;;;;;;5114097;28;20028;-60
2022/06/08 13:31:49;;;;;;;6.10;3.97;;;25.80;93.30;;;;;;5114309;28;20026;-57